sensor_id;sensor_type;location;lat;lon;timestamp;P1;durP1;ratioP1;P2;durP2;ratioP2
239;SDS011;104;53.590;10.004;2023-05-07T00:01:43;526.47;;;180.17;;
239;SDS011;104;53.590;10.004;2023-05-07T00:04:11;542.80;;;184.43;;
239;SDS011;104;53.590;10.004;2023-05-07T00:06:39;555.43;;;191.47;;
239;SDS011;104;53.590;10.004;2023-05-07T00:09:06;581.90;;;181.90;;
239;SDS011;104;53.590;10.004;2023-05-07T00:11:33;612.27;;;181.07;;
239;SDS011;104;53.590;10.004;2023-05-07T00:14:01;625.57;;;191.27;;
239;SDS011;104;53.590;10.004;2023-05-07T00:16:28;628.80;;;179.73;;
239;SDS011;104;53.590;10.004;2023-05-07T00:18:55;596.60;;;184.33;;
239;SDS011;104;53.590;10.004;2023-05-07T00:21:24;624.47;;;187.23;;
239;SDS011;104;53.590;10.004;2023-05-07T00:23:52;666.60;;;180.03;;
239;SDS011;104;53.590;10.004;2023-05-07T00:26:19;685.97;;;186.23;;
239;SDS011;104;53.590;10.004;2023-05-07T00:28:46;639.00;;;170.53;;
239;SDS011;104;53.590;10.004;2023-05-07T00:31:14;564.17;;;179.67;;
239;SDS011;104;53.590;10.004;2023-05-07T00:33:41;569.30;;;170.33;;
239;SDS011;104;53.590;10.004;2023-05-07T00:36:08;648.33;;;175.00;;
239;SDS011;104;53.590;10.004;2023-05-07T00:38:37;576.67;;;175.07;;
239;SDS011;104;53.590;10.004;2023-05-07T00:41:04;586.50;;;165.10;;
239;SDS011;104;53.590;10.004;2023-05-07T00:43:31;588.47;;;165.57;;
239;SDS011;104;53.590;10.004;2023-05-07T00:45:59;611.47;;;172.60;;
239;SDS011;104;53.590;10.004;2023-05-07T00:48:26;697.47;;;176.10;;
239;SDS011;104;53.590;10.004;2023-05-07T00:50:53;780.03;;;173.90;;
239;SDS011;104;53.590;10.004;2023-05-07T00:53:21;670.97;;;182.77;;
239;SDS011;104;53.590;10.004;2023-05-07T00:55:49;594.63;;;169.83;;
239;SDS011;104;53.590;10.004;2023-05-07T00:58:17;589.23;;;176.83;;
239;SDS011;104;53.590;10.004;2023-05-07T01:00:44;616.20;;;168.43;;
239;SDS011;104;53.590;10.004;2023-05-07T01:03:11;658.13;;;183.67;;
239;SDS011;104;53.590;10.004;2023-05-07T01:05:38;658.73;;;178.47;;
239;SDS011;104;53.590;10.004;2023-05-07T01:08:06;673.93;;;175.97;;
239;SDS011;104;53.590;10.004;2023-05-07T01:10:34;672.33;;;187.20;;
239;SDS011;104;53.590;10.004;2023-05-07T01:13:02;695.80;;;194.47;;
239;SDS011;104;53.590;10.004;2023-05-07T01:15:30;692.97;;;178.93;;
239;SDS011;104;53.590;10.004;2023-05-07T01:17:57;723.17;;;190.43;;
239;SDS011;104;53.590;10.004;2023-05-07T01:20:25;567.13;;;174.93;;
239;SDS011;104;53.590;10.004;2023-05-07T01:22:54;542.07;;;180.37;;
239;SDS011;104;53.590;10.004;2023-05-07T01:25:21;583.63;;;184.07;;
239;SDS011;104;53.590;10.004;2023-05-07T01:27:48;555.83;;;179.87;;
239;SDS011;104;53.590;10.004;2023-05-07T01:30:16;520.73;;;172.97;;
239;SDS011;104;53.590;10.004;2023-05-07T01:32:45;550.70;;;167.40;;
239;SDS011;104;53.590;10.004;2023-05-07T01:35:16;573.10;;;170.33;;
239;SDS011;104;53.590;10.004;2023-05-07T01:37:45;617.10;;;172.87;;
239;SDS011;104;53.590;10.004;2023-05-07T01:40:14;644.70;;;168.67;;
239;SDS011;104;53.590;10.004;2023-05-07T01:42:41;633.07;;;183.20;;
239;SDS011;104;53.590;10.004;2023-05-07T01:45:10;688.13;;;178.23;;
239;SDS011;104;53.590;10.004;2023-05-07T01:47:37;724.77;;;168.40;;
239;SDS011;104;53.590;10.004;2023-05-07T01:50:06;546.63;;;167.57;;
239;SDS011;104;53.590;10.004;2023-05-07T01:52:35;566.03;;;156.57;;
239;SDS011;104;53.590;10.004;2023-05-07T01:55:03;531.17;;;156.37;;
239;SDS011;104;53.590;10.004;2023-05-07T01:57:32;528.50;;;162.50;;
239;SDS011;104;53.590;10.004;2023-05-07T01:59:59;525.97;;;151.37;;
239;SDS011;104;53.590;10.004;2023-05-07T02:02:27;480.90;;;147.37;;
239;SDS011;104;53.590;10.004;2023-05-07T02:04:55;528.97;;;153.63;;
239;SDS011;104;53.590;10.004;2023-05-07T02:07:22;405.73;;;146.30;;
239;SDS011;104;53.590;10.004;2023-05-07T02:09:49;455.07;;;151.73;;
239;SDS011;104;53.590;10.004;2023-05-07T02:12:17;491.07;;;150.87;;
239;SDS011;104;53.590;10.004;2023-05-07T02:14:46;503.53;;;157.37;;
239;SDS011;104;53.590;10.004;2023-05-07T02:17:13;452.83;;;162.40;;
239;SDS011;104;53.590;10.004;2023-05-07T02:19:40;407.57;;;157.37;;
239;SDS011;104;53.590;10.004;2023-05-07T02:22:09;471.37;;;159.83;;
239;SDS011;104;53.590;10.004;2023-05-07T02:24:36;437.87;;;146.93;;
239;SDS011;104;53.590;10.004;2023-05-07T02:27:03;398.47;;;137.20;;
239;SDS011;104;53.590;10.004;2023-05-07T02:29:30;439.20;;;151.30;;
239;SDS011;104;53.590;10.004;2023-05-07T02:31:59;390.63;;;152.03;;
239;SDS011;104;53.590;10.004;2023-05-07T02:34:26;404.27;;;146.40;;
239;SDS011;104;53.590;10.004;2023-05-07T02:36:53;380.70;;;137.33;;
239;SDS011;104;53.590;10.004;2023-05-07T02:39:21;413.70;;;145.73;;
239;SDS011;104;53.590;10.004;2023-05-07T02:41:48;398.23;;;136.13;;
239;SDS011;104;53.590;10.004;2023-05-07T02:44:15;365.00;;;138.97;;
239;SDS011;104;53.590;10.004;2023-05-07T02:46:42;335.00;;;131.50;;
239;SDS011;104;53.590;10.004;2023-05-07T02:49:11;330.57;;;143.70;;
239;SDS011;104;53.590;10.004;2023-05-07T02:51:38;187.50;;;101.43;;
239;SDS011;104;53.590;10.004;2023-05-07T02:54:05;230.97;;;114.67;;
239;SDS011;104;53.590;10.004;2023-05-07T02:56:33;252.07;;;121.60;;
239;SDS011;104;53.590;10.004;2023-05-07T02:59:00;285.90;;;128.27;;
239;SDS011;104;53.590;10.004;2023-05-07T03:01:27;319.47;;;141.17;;
239;SDS011;104;53.590;10.004;2023-05-07T03:03:55;322.80;;;140.23;;
239;SDS011;104;53.590;10.004;2023-05-07T03:06:23;308.83;;;138.43;;
239;SDS011;104;53.590;10.004;2023-05-07T03:08:51;298.07;;;131.77;;
239;SDS011;104;53.590;10.004;2023-05-07T03:11:18;208.63;;;111.70;;
239;SDS011;104;53.590;10.004;2023-05-07T03:13:45;269.97;;;125.47;;
239;SDS011;104;53.590;10.004;2023-05-07T03:16:15;93.33;;;49.63;;
239;SDS011;104;53.590;10.004;2023-05-07T03:18:42;38.10;;;29.23;;
239;SDS011;104;53.590;10.004;2023-05-07T03:21:09;52.37;;;40.70;;
239;SDS011;104;53.590;10.004;2023-05-07T03:23:38;63.97;;;45.43;;
239;SDS011;104;53.590;10.004;2023-05-07T03:26:05;58.70;;;43.10;;
239;SDS011;104;53.590;10.004;2023-05-07T03:28:33;58.83;;;42.33;;
239;SDS011;104;53.590;10.004;2023-05-07T03:31:00;51.37;;;38.17;;
239;SDS011;104;53.590;10.004;2023-05-07T03:33:28;80.80;;;54.73;;
239;SDS011;104;53.590;10.004;2023-05-07T03:35:55;87.67;;;61.97;;
239;SDS011;104;53.590;10.004;2023-05-07T03:38:22;78.07;;;53.17;;
239;SDS011;104;53.590;10.004;2023-05-07T03:40:51;59.20;;;42.30;;
239;SDS011;104;53.590;10.004;2023-05-07T03:43:18;62.83;;;40.47;;
239;SDS011;104;53.590;10.004;2023-05-07T03:45:45;88.17;;;59.33;;
239;SDS011;104;53.590;10.004;2023-05-07T03:48:12;77.03;;;56.57;;
239;SDS011;104;53.590;10.004;2023-05-07T03:50:40;67.13;;;43.83;;
239;SDS011;104;53.590;10.004;2023-05-07T03:53:07;80.90;;;55.00;;
239;SDS011;104;53.590;10.004;2023-05-07T03:55:34;68.77;;;51.13;;
239;SDS011;104;53.590;10.004;2023-05-07T03:58:03;84.20;;;55.33;;
239;SDS011;104;53.590;10.004;2023-05-07T04:00:30;88.37;;;61.80;;
239;SDS011;104;53.590;10.004;2023-05-07T04:03:03;58.73;;;41.83;;
239;SDS011;104;53.590;10.004;2023-05-07T04:05:30;88.10;;;58.13;;
239;SDS011;104;53.590;10.004;2023-05-07T04:08:00;72.30;;;53.43;;
239;SDS011;104;53.590;10.004;2023-05-07T04:10:29;73.03;;;44.73;;
239;SDS011;104;53.590;10.004;2023-05-07T04:12:56;242.50;;;131.77;;
239;SDS011;104;53.590;10.004;2023-05-07T04:15:24;222.40;;;117.00;;
239;SDS011;104;53.590;10.004;2023-05-07T04:17:52;252.90;;;126.80;;
239;SDS011;104;53.590;10.004;2023-05-07T04:20:19;285.77;;;137.77;;
239;SDS011;104;53.590;10.004;2023-05-07T04:22:46;222.57;;;116.07;;
239;SDS011;104;53.590;10.004;2023-05-07T04:25:15;207.27;;;112.73;;
239;SDS011;104;53.590;10.004;2023-05-07T04:27:42;251.97;;;131.40;;
239;SDS011;104;53.590;10.004;2023-05-07T04:30:10;264.13;;;131.23;;
239;SDS011;104;53.590;10.004;2023-05-07T04:32:39;257.63;;;128.53;;
239;SDS011;104;53.590;10.004;2023-05-07T04:35:07;280.47;;;137.93;;
239;SDS011;104;53.590;10.004;2023-05-07T04:37:34;325.80;;;144.17;;
239;SDS011;104;53.590;10.004;2023-05-07T04:40:01;336.90;;;156.47;;
239;SDS011;104;53.590;10.004;2023-05-07T04:42:29;316.33;;;143.03;;
239;SDS011;104;53.590;10.004;2023-05-07T04:44:56;285.60;;;136.47;;
239;SDS011;104;53.590;10.004;2023-05-07T04:47:23;327.60;;;161.27;;
239;SDS011;104;53.590;10.004;2023-05-07T04:49:52;341.30;;;157.10;;
239;SDS011;104;53.590;10.004;2023-05-07T04:52:19;398.83;;;160.67;;
239;SDS011;104;53.590;10.004;2023-05-07T04:54:46;402.77;;;168.53;;
239;SDS011;104;53.590;10.004;2023-05-07T04:57:14;403.63;;;163.20;;
239;SDS011;104;53.590;10.004;2023-05-07T04:59:42;413.30;;;173.87;;
239;SDS011;104;53.590;10.004;2023-05-07T05:02:09;409.07;;;161.23;;
239;SDS011;104;53.590;10.004;2023-05-07T05:04:39;427.87;;;167.40;;
239;SDS011;104;53.590;10.004;2023-05-07T05:07:08;395.27;;;175.80;;
239;SDS011;104;53.590;10.004;2023-05-07T05:09:35;481.13;;;187.47;;
239;SDS011;104;53.590;10.004;2023-05-07T05:12:03;580.97;;;187.33;;
239;SDS011;104;53.590;10.004;2023-05-07T05:14:32;447.23;;;186.03;;
239;SDS011;104;53.590;10.004;2023-05-07T05:16:59;437.10;;;178.43;;
239;SDS011;104;53.590;10.004;2023-05-07T05:19:26;453.30;;;188.67;;
239;SDS011;104;53.590;10.004;2023-05-07T05:21:53;441.90;;;189.97;;
239;SDS011;104;53.590;10.004;2023-05-07T05:24:22;428.23;;;191.37;;
239;SDS011;104;53.590;10.004;2023-05-07T05:26:50;458.00;;;187.73;;
239;SDS011;104;53.590;10.004;2023-05-07T05:29:20;528.10;;;196.73;;
239;SDS011;104;53.590;10.004;2023-05-07T05:31:47;708.90;;;210.23;;
239;SDS011;104;53.590;10.004;2023-05-07T05:34:14;491.07;;;190.50;;
239;SDS011;104;53.590;10.004;2023-05-07T05:36:42;481.17;;;204.67;;
239;SDS011;104;53.590;10.004;2023-05-07T05:39:09;500.70;;;195.63;;
239;SDS011;104;53.590;10.004;2023-05-07T05:41:39;463.43;;;197.30;;
239;SDS011;104;53.590;10.004;2023-05-07T05:44:06;416.23;;;213.57;;
239;SDS011;104;53.590;10.004;2023-05-07T05:46:33;507.60;;;206.93;;
239;SDS011;104;53.590;10.004;2023-05-07T05:49:01;605.77;;;238.20;;
239;SDS011;104;53.590;10.004;2023-05-07T05:51:29;623.70;;;232.37;;
239;SDS011;104;53.590;10.004;2023-05-07T05:53:56;658.47;;;266.70;;
239;SDS011;104;53.590;10.004;2023-05-07T05:56:23;664.63;;;259.07;;
239;SDS011;104;53.590;10.004;2023-05-07T05:58:52;623.67;;;254.70;;
239;SDS011;104;53.590;10.004;2023-05-07T06:01:19;629.77;;;261.50;;
239;SDS011;104;53.590;10.004;2023-05-07T06:03:47;607.30;;;278.70;;
239;SDS011;104;53.590;10.004;2023-05-07T06:06:14;573.67;;;286.70;;
239;SDS011;104;53.590;10.004;2023-05-07T06:08:41;603.53;;;284.63;;
239;SDS011;104;53.590;10.004;2023-05-07T06:11:09;522.70;;;286.47;;
239;SDS011;104;53.590;10.004;2023-05-07T06:13:36;647.90;;;332.87;;
239;SDS011;104;53.590;10.004;2023-05-07T06:16:06;791.97;;;328.43;;
239;SDS011;104;53.590;10.004;2023-05-07T06:18:33;580.53;;;318.50;;
239;SDS011;104;53.590;10.004;2023-05-07T06:21:01;377.87;;;282.83;;
239;SDS011;104;53.590;10.004;2023-05-07T06:23:28;354.10;;;261.10;;
239;SDS011;104;53.590;10.004;2023-05-07T06:25:55;414.07;;;293.47;;
239;SDS011;104;53.590;10.004;2023-05-07T06:28:23;451.93;;;274.97;;
239;SDS011;104;53.590;10.004;2023-05-07T06:30:50;499.70;;;297.13;;
239;SDS011;104;53.590;10.004;2023-05-07T06:33:19;516.23;;;315.67;;
239;SDS011;104;53.590;10.004;2023-05-07T06:35:46;539.40;;;307.07;;
239;SDS011;104;53.590;10.004;2023-05-07T06:38:13;522.37;;;304.23;;
239;SDS011;104;53.590;10.004;2023-05-07T06:40:40;495.50;;;299.87;;
239;SDS011;104;53.590;10.004;2023-05-07T06:43:08;536.10;;;292.23;;
239;SDS011;104;53.590;10.004;2023-05-07T06:45:36;556.00;;;322.10;;
239;SDS011;104;53.590;10.004;2023-05-07T06:48:03;594.97;;;325.77;;
239;SDS011;104;53.590;10.004;2023-05-07T06:50:32;618.00;;;330.80;;
239;SDS011;104;53.590;10.004;2023-05-07T06:52:59;818.13;;;353.27;;
239;SDS011;104;53.590;10.004;2023-05-07T06:55:27;576.30;;;329.43;;
239;SDS011;104;53.590;10.004;2023-05-07T06:57:54;710.20;;;367.97;;
239;SDS011;104;53.590;10.004;2023-05-07T07:00:23;683.43;;;347.27;;
239;SDS011;104;53.590;10.004;2023-05-07T07:02:50;576.10;;;349.30;;
239;SDS011;104;53.590;10.004;2023-05-07T07:05:17;517.63;;;336.53;;
239;SDS011;104;53.590;10.004;2023-05-07T07:07:46;582.27;;;335.83;;
239;SDS011;104;53.590;10.004;2023-05-07T07:10:17;607.40;;;366.97;;
239;SDS011;104;53.590;10.004;2023-05-07T07:12:45;482.17;;;361.97;;
239;SDS011;104;53.590;10.004;2023-05-07T07:15:12;610.30;;;393.90;;
239;SDS011;104;53.590;10.004;2023-05-07T07:17:40;751.63;;;392.93;;
239;SDS011;104;53.590;10.004;2023-05-07T07:20:07;775.57;;;374.27;;
239;SDS011;104;53.590;10.004;2023-05-07T07:22:35;464.27;;;359.60;;
239;SDS011;104;53.590;10.004;2023-05-07T07:25:04;549.67;;;350.90;;
239;SDS011;104;53.590;10.004;2023-05-07T07:27:31;600.80;;;376.23;;
239;SDS011;104;53.590;10.004;2023-05-07T07:29:59;571.70;;;368.27;;
239;SDS011;104;53.590;10.004;2023-05-07T07:32:26;596.40;;;368.73;;
239;SDS011;104;53.590;10.004;2023-05-07T07:37:38;573.87;;;352.80;;
239;SDS011;104;53.590;10.004;2023-05-07T07:40:11;599.97;;;351.73;;
239;SDS011;104;53.590;10.004;2023-05-07T07:42:38;496.67;;;359.57;;
239;SDS011;104;53.590;10.004;2023-05-07T07:45:06;542.17;;;373.10;;
239;SDS011;104;53.590;10.004;2023-05-07T07:47:33;554.93;;;363.07;;
239;SDS011;104;53.590;10.004;2023-05-07T07:50:01;577.93;;;363.37;;
239;SDS011;104;53.590;10.004;2023-05-07T07:52:28;580.83;;;355.50;;
239;SDS011;104;53.590;10.004;2023-05-07T07:54:55;601.03;;;384.73;;
239;SDS011;104;53.590;10.004;2023-05-07T07:57:24;567.30;;;389.73;;
239;SDS011;104;53.590;10.004;2023-05-07T07:59:51;624.33;;;362.53;;
239;SDS011;104;53.590;10.004;2023-05-07T08:02:18;633.47;;;392.03;;
239;SDS011;104;53.590;10.004;2023-05-07T08:04:45;614.10;;;395.27;;
239;SDS011;104;53.590;10.004;2023-05-07T08:07:13;562.67;;;400.03;;
239;SDS011;104;53.590;10.004;2023-05-07T08:09:43;466.80;;;348.57;;
239;SDS011;104;53.590;10.004;2023-05-07T08:12:10;385.97;;;319.67;;
239;SDS011;104;53.590;10.004;2023-05-07T08:14:39;351.27;;;302.37;;
239;SDS011;104;53.590;10.004;2023-05-07T08:17:06;342.30;;;294.67;;
239;SDS011;104;53.590;10.004;2023-05-07T08:19:34;331.50;;;282.60;;
239;SDS011;104;53.590;10.004;2023-05-07T08:22:02;338.43;;;297.30;;
239;SDS011;104;53.590;10.004;2023-05-07T08:24:29;345.03;;;306.30;;
239;SDS011;104;53.590;10.004;2023-05-07T08:26:56;380.47;;;322.13;;
239;SDS011;104;53.590;10.004;2023-05-07T08:29:24;362.63;;;308.13;;
239;SDS011;104;53.590;10.004;2023-05-07T08:31:52;222.53;;;210.23;;
239;SDS011;104;53.590;10.004;2023-05-07T08:34:21;301.07;;;273.37;;
239;SDS011;104;53.590;10.004;2023-05-07T08:36:48;475.87;;;414.17;;
239;SDS011;104;53.590;10.004;2023-05-07T08:39:15;524.93;;;436.33;;
239;SDS011;104;53.590;10.004;2023-05-07T08:41:44;477.00;;;404.10;;
239;SDS011;104;53.590;10.004;2023-05-07T08:44:12;495.67;;;418.47;;
239;SDS011;104;53.590;10.004;2023-05-07T08:46:41;475.43;;;419.93;;
239;SDS011;104;53.590;10.004;2023-05-07T08:49:10;565.23;;;471.10;;
239;SDS011;104;53.590;10.004;2023-05-07T08:51:37;601.37;;;501.47;;
239;SDS011;104;53.590;10.004;2023-05-07T08:54:04;628.10;;;468.50;;
239;SDS011;104;53.590;10.004;2023-05-07T08:56:32;763.60;;;459.23;;
239;SDS011;104;53.590;10.004;2023-05-07T08:59:00;520.67;;;420.07;;
239;SDS011;104;53.590;10.004;2023-05-07T09:01:28;601.93;;;463.03;;
239;SDS011;104;53.590;10.004;2023-05-07T09:03:57;554.00;;;436.80;;
239;SDS011;104;53.590;10.004;2023-05-07T09:06:25;339.70;;;321.80;;
239;SDS011;104;53.590;10.004;2023-05-07T09:08:53;509.33;;;426.07;;
239;SDS011;104;53.590;10.004;2023-05-07T09:11:22;518.20;;;435.57;;
239;SDS011;104;53.590;10.004;2023-05-07T09:13:53;502.57;;;427.50;;
239;SDS011;104;53.590;10.004;2023-05-07T09:16:21;521.50;;;435.23;;
239;SDS011;104;53.590;10.004;2023-05-07T09:18:51;505.23;;;432.47;;
239;SDS011;104;53.590;10.004;2023-05-07T09:21:19;435.30;;;393.63;;
239;SDS011;104;53.590;10.004;2023-05-07T09:23:50;336.10;;;310.63;;
239;SDS011;104;53.590;10.004;2023-05-07T09:26:17;361.27;;;341.30;;
239;SDS011;104;53.590;10.004;2023-05-07T09:28:45;431.03;;;378.97;;
239;SDS011;104;53.590;10.004;2023-05-07T09:31:12;416.53;;;380.40;;
239;SDS011;104;53.590;10.004;2023-05-07T09:33:40;417.70;;;387.80;;
239;SDS011;104;53.590;10.004;2023-05-07T09:36:07;443.03;;;393.80;;
239;SDS011;104;53.590;10.004;2023-05-07T09:38:36;415.03;;;373.90;;
239;SDS011;104;53.590;10.004;2023-05-07T09:41:05;437.87;;;396.40;;
239;SDS011;104;53.590;10.004;2023-05-07T09:43:33;431.17;;;384.43;;
239;SDS011;104;53.590;10.004;2023-05-07T09:46:05;441.47;;;395.10;;
239;SDS011;104;53.590;10.004;2023-05-07T09:48:35;451.90;;;412.17;;
239;SDS011;104;53.590;10.004;2023-05-07T09:51:04;442.50;;;398.93;;
239;SDS011;104;53.590;10.004;2023-05-07T09:53:34;415.90;;;389.77;;
239;SDS011;104;53.590;10.004;2023-05-07T09:56:02;443.57;;;408.97;;
239;SDS011;104;53.590;10.004;2023-05-07T09:58:31;452.37;;;414.23;;
239;SDS011;104;53.590;10.004;2023-05-07T10:00:58;250.20;;;238.20;;
239;SDS011;104;53.590;10.004;2023-05-07T10:03:26;294.57;;;280.47;;
239;SDS011;104;53.590;10.004;2023-05-07T10:05:55;365.77;;;347.57;;
239;SDS011;104;53.590;10.004;2023-05-07T10:08:22;389.43;;;368.23;;
239;SDS011;104;53.590;10.004;2023-05-07T10:10:49;362.17;;;341.10;;
239;SDS011;104;53.590;10.004;2023-05-07T10:13:17;336.67;;;320.57;;
239;SDS011;104;53.590;10.004;2023-05-07T10:15:45;428.33;;;382.60;;
239;SDS011;104;53.590;10.004;2023-05-07T10:18:14;427.83;;;385.03;;
239;SDS011;104;53.590;10.004;2023-05-07T10:20:42;394.47;;;361.97;;
239;SDS011;104;53.590;10.004;2023-05-07T10:23:09;385.63;;;353.80;;
239;SDS011;104;53.590;10.004;2023-05-07T10:25:40;403.73;;;370.40;;
239;SDS011;104;53.590;10.004;2023-05-07T10:28:08;439.83;;;395.83;;
239;SDS011;104;53.590;10.004;2023-05-07T10:30:40;403.67;;;373.63;;
239;SDS011;104;53.590;10.004;2023-05-07T10:33:13;385.20;;;353.77;;
239;SDS011;104;53.590;10.004;2023-05-07T10:35:42;385.33;;;354.53;;
239;SDS011;104;53.590;10.004;2023-05-07T10:38:10;348.30;;;327.50;;
239;SDS011;104;53.590;10.004;2023-05-07T10:40:37;358.77;;;337.27;;
239;SDS011;104;53.590;10.004;2023-05-07T10:43:05;331.80;;;309.10;;
239;SDS011;104;53.590;10.004;2023-05-07T10:45:32;345.43;;;324.27;;
239;SDS011;104;53.590;10.004;2023-05-07T10:48:05;339.57;;;322.40;;
239;SDS011;104;53.590;10.004;2023-05-07T10:50:34;363.17;;;327.63;;
239;SDS011;104;53.590;10.004;2023-05-07T10:53:20;376.27;;;350.80;;
239;SDS011;104;53.590;10.004;2023-05-07T10:55:49;386.93;;;350.87;;
239;SDS011;104;53.590;10.004;2023-05-07T10:58:22;358.60;;;338.83;;
239;SDS011;104;53.590;10.004;2023-05-07T11:00:50;209.93;;;199.90;;
239;SDS011;104;53.590;10.004;2023-05-07T11:03:17;126.07;;;120.00;;
239;SDS011;104;53.590;10.004;2023-05-07T11:05:46;120.57;;;114.77;;
239;SDS011;104;53.590;10.004;2023-05-07T11:08:14;150.40;;;143.17;;
239;SDS011;104;53.590;10.004;2023-05-07T11:10:47;139.93;;;133.20;;
239;SDS011;104;53.590;10.004;2023-05-07T11:13:15;123.60;;;117.67;;
239;SDS011;104;53.590;10.004;2023-05-07T11:15:43;143.73;;;136.83;;
239;SDS011;104;53.590;10.004;2023-05-07T11:18:14;333.73;;;317.43;;
239;SDS011;104;53.590;10.004;2023-05-07T11:26:13;327.10;;;310.17;;
239;SDS011;104;53.590;10.004;2023-05-07T11:28:41;314.50;;;299.50;;
239;SDS011;104;53.590;10.004;2023-05-07T11:31:09;322.23;;;306.83;;
239;SDS011;104;53.590;10.004;2023-05-07T11:33:37;328.20;;;312.50;;
239;SDS011;104;53.590;10.004;2023-05-07T11:36:04;333.03;;;317.13;;
239;SDS011;104;53.590;10.004;2023-05-07T11:38:34;335.40;;;318.93;;
239;SDS011;104;53.590;10.004;2023-05-07T11:41:02;320.20;;;304.73;;
239;SDS011;104;53.590;10.004;2023-05-07T11:43:31;337.23;;;321.13;;
239;SDS011;104;53.590;10.004;2023-05-07T11:46:07;332.83;;;316.93;;
239;SDS011;104;53.590;10.004;2023-05-07T11:48:35;582.27;;;497.93;;
239;SDS011;104;53.590;10.004;2023-05-07T11:51:03;459.73;;;409.70;;
239;SDS011;104;53.590;10.004;2023-05-07T11:53:35;451.80;;;394.00;;
239;SDS011;104;53.590;10.004;2023-05-07T11:56:06;447.03;;;401.70;;
239;SDS011;104;53.590;10.004;2023-05-07T11:58:36;427.20;;;380.03;;
239;SDS011;104;53.590;10.004;2023-05-07T12:01:03;450.90;;;402.97;;
239;SDS011;104;53.590;10.004;2023-05-07T12:03:34;412.03;;;370.80;;
239;SDS011;104;53.590;10.004;2023-05-07T12:06:02;415.50;;;379.00;;
239;SDS011;104;53.590;10.004;2023-05-07T12:08:29;454.63;;;399.67;;
239;SDS011;104;53.590;10.004;2023-05-07T12:10:56;203.43;;;183.87;;
239;SDS011;104;53.590;10.004;2023-05-07T12:13:24;337.87;;;321.77;;
239;SDS011;104;53.590;10.004;2023-05-07T12:15:54;397.27;;;362.13;;
239;SDS011;104;53.590;10.004;2023-05-07T12:18:22;384.13;;;351.40;;
239;SDS011;104;53.590;10.004;2023-05-07T12:20:50;386.43;;;362.30;;
239;SDS011;104;53.590;10.004;2023-05-07T12:23:17;302.00;;;287.57;;
239;SDS011;104;53.590;10.004;2023-05-07T12:25:45;273.23;;;260.17;;
239;SDS011;104;53.590;10.004;2023-05-07T12:28:13;303.03;;;285.43;;
239;SDS011;104;53.590;10.004;2023-05-07T12:30:40;365.40;;;342.23;;
239;SDS011;104;53.590;10.004;2023-05-07T12:33:11;362.60;;;331.80;;
239;SDS011;104;53.590;10.004;2023-05-07T12:35:39;367.80;;;341.20;;
239;SDS011;104;53.590;10.004;2023-05-07T12:38:07;417.33;;;376.87;;
239;SDS011;104;53.590;10.004;2023-05-07T12:40:36;434.53;;;393.43;;
239;SDS011;104;53.590;10.004;2023-05-07T12:43:04;479.97;;;427.83;;
239;SDS011;104;53.590;10.004;2023-05-07T12:45:31;429.50;;;395.97;;
239;SDS011;104;53.590;10.004;2023-05-07T12:48:06;411.03;;;379.03;;
239;SDS011;104;53.590;10.004;2023-05-07T12:50:41;393.90;;;366.00;;
239;SDS011;104;53.590;10.004;2023-05-07T12:53:09;176.53;;;168.07;;
239;SDS011;104;53.590;10.004;2023-05-07T12:55:41;289.73;;;275.87;;
239;SDS011;104;53.590;10.004;2023-05-07T12:58:13;391.83;;;358.53;;
239;SDS011;104;53.590;10.004;2023-05-07T13:00:42;399.63;;;370.13;;
239;SDS011;104;53.590;10.004;2023-05-07T13:03:10;379.43;;;358.83;;
239;SDS011;104;53.590;10.004;2023-05-07T13:05:37;366.50;;;349.00;;
239;SDS011;104;53.590;10.004;2023-05-07T13:08:06;433.37;;;405.77;;
239;SDS011;104;53.590;10.004;2023-05-07T13:10:34;408.83;;;385.97;;
239;SDS011;104;53.590;10.004;2023-05-07T13:13:01;448.10;;;411.13;;
239;SDS011;104;53.590;10.004;2023-05-07T13:15:29;467.33;;;429.20;;
239;SDS011;104;53.590;10.004;2023-05-07T13:17:57;451.93;;;415.93;;
239;SDS011;104;53.590;10.004;2023-05-07T13:20:24;459.13;;;428.33;;
239;SDS011;104;53.590;10.004;2023-05-07T13:22:51;501.43;;;459.90;;
239;SDS011;104;53.590;10.004;2023-05-07T13:25:20;448.73;;;416.57;;
239;SDS011;104;53.590;10.004;2023-05-07T13:27:47;473.77;;;428.70;;
239;SDS011;104;53.590;10.004;2023-05-07T13:30:14;461.00;;;416.17;;
239;SDS011;104;53.590;10.004;2023-05-07T13:32:44;470.07;;;430.03;;
239;SDS011;104;53.590;10.004;2023-05-07T13:35:12;496.20;;;451.53;;
239;SDS011;104;53.590;10.004;2023-05-07T13:37:40;567.60;;;504.57;;
239;SDS011;104;53.590;10.004;2023-05-07T13:40:08;586.27;;;515.23;;
239;SDS011;104;53.590;10.004;2023-05-07T13:42:36;698.63;;;565.10;;
239;SDS011;104;53.590;10.004;2023-05-07T13:45:04;711.50;;;582.57;;
239;SDS011;104;53.590;10.004;2023-05-07T13:47:31;674.10;;;560.80;;
239;SDS011;104;53.590;10.004;2023-05-07T13:49:59;727.83;;;563.00;;
239;SDS011;104;53.590;10.004;2023-05-07T13:52:29;726.07;;;568.60;;
239;SDS011;104;53.590;10.004;2023-05-07T13:54:58;624.47;;;541.07;;
239;SDS011;104;53.590;10.004;2023-05-07T13:57:25;609.70;;;532.77;;
239;SDS011;104;53.590;10.004;2023-05-07T13:59:54;533.93;;;481.80;;
239;SDS011;104;53.590;10.004;2023-05-07T14:02:21;487.53;;;436.40;;
239;SDS011;104;53.590;10.004;2023-05-07T14:04:48;477.80;;;435.00;;
239;SDS011;104;53.590;10.004;2023-05-07T14:07:18;484.43;;;440.47;;
239;SDS011;104;53.590;10.004;2023-05-07T14:09:45;499.20;;;437.30;;
239;SDS011;104;53.590;10.004;2023-05-07T14:12:12;531.20;;;474.50;;
239;SDS011;104;53.590;10.004;2023-05-07T14:14:39;742.47;;;554.37;;
239;SDS011;104;53.590;10.004;2023-05-07T14:17:08;519.47;;;467.87;;
239;SDS011;104;53.590;10.004;2023-05-07T14:19:35;529.27;;;469.93;;
239;SDS011;104;53.590;10.004;2023-05-07T14:22:03;548.37;;;485.53;;
239;SDS011;104;53.590;10.004;2023-05-07T14:24:31;574.23;;;505.90;;
239;SDS011;104;53.590;10.004;2023-05-07T14:26:58;586.17;;;518.23;;
239;SDS011;104;53.590;10.004;2023-05-07T14:29:26;546.93;;;484.93;;
239;SDS011;104;53.590;10.004;2023-05-07T14:31:53;597.63;;;518.30;;
239;SDS011;104;53.590;10.004;2023-05-07T14:34:23;549.20;;;481.70;;
239;SDS011;104;53.590;10.004;2023-05-07T14:36:50;567.03;;;499.70;;
239;SDS011;104;53.590;10.004;2023-05-07T14:39:17;466.83;;;428.90;;
239;SDS011;104;53.590;10.004;2023-05-07T14:41:45;480.40;;;437.53;;
239;SDS011;104;53.590;10.004;2023-05-07T14:44:12;480.67;;;430.97;;
239;SDS011;104;53.590;10.004;2023-05-07T14:46:39;497.30;;;448.77;;
239;SDS011;104;53.590;10.004;2023-05-07T14:49:06;448.90;;;411.60;;